Time;durP1;ratioP1;P1;durP2;ratioP2;P2;SDS_P1;SDS_P2;PMS_P1;PMS_P2;Temp;Humidity;BMP_temperature;BMP_pressure;BME280_temperature;BME280_humidity;BME280_pressure;Samples;Min_cycle;Max_cycle;Signal;HPM_P1;HPM_P2
2023/05/08 00:00:39;;;;;;;6.22;4.32;;;20.10;71.70;;;;;;6307811;22;20010;-79
2023/05/08 00:03:05;;;;;;;8.35;5.20;;;20.10;72.20;;;;;;6307450;22;20050;-78
2023/05/08 00:05:30;;;;;;;6.65;4.32;;;20.00;72.40;;;;;;6307677;22;20011;-79
2023/05/08 00:08:00;;;;;;;9.55;4.88;;;20.00;72.80;;;;;;6307969;22;20333;-78
2023/05/08 00:10:29;;;;;;;10.65;5.03;;;20.00;73.80;;;;;;6307774;22;20007;-80
2023/05/08 00:12:55;;;;;;;7.45;5.40;;;20.00;73.60;;;;;;6307919;22;20000;-78
2023/05/08 00:15:21;;;;;;;8.68;5.35;;;20.00;73.70;;;;;;6307749;22;20065;-79
2023/05/08 00:17:46;;;;;;;8.75;5.40;;;20.00;74.00;;;;;;6308040;22;20066;-78
2023/05/08 00:20:12;;;;;;;8.70;5.10;;;20.00;74.10;;;;;;6308020;22;20031;-79
2023/05/08 00:22:39;;;;;;;7.57;5.57;;;20.10;74.20;;;;;;6307572;22;19995;-79
2023/05/08 00:25:05;;;;;;;8.18;5.25;;;20.10;74.50;;;;;;6307626;22;20003;-78
2023/05/08 00:27:31;;;;;;;7.15;5.50;;;20.10;74.90;;;;;;6307474;22;20010;-78
2023/05/08 00:29:57;;;;;;;6.93;5.30;;;20.10;74.90;;;;;;6307534;22;20053;-78
2023/05/08 00:32:23;;;;;;;8.85;5.68;;;20.10;74.90;;;;;;6307407;22;20000;-78
2023/05/08 00:34:49;;;;;;;8.48;6.10;;;20.10;75.50;;;;;;6280471;22;20409;-78
2023/05/08 00:37:15;;;;;;;7.85;5.85;;;20.10;75.70;;;;;;6307532;22;20058;-78
2023/05/08 00:39:40;;;;;;;9.27;5.70;;;20.10;76.20;;;;;;6307533;22;20053;-78
2023/05/08 00:42:06;;;;;;;7.60;5.88;;;20.10;76.60;;;;;;6307272;22;19999;-79
2023/05/08 00:44:32;;;;;;;8.30;5.70;;;20.10;76.80;;;;;;6307180;22;20090;-80
2023/05/08 00:46:58;;;;;;;6.85;4.72;;;20.10;76.90;;;;;;6307418;22;20053;-78
2023/05/08 00:49:24;;;;;;;10.30;5.43;;;20.00;76.60;;;;;;6307385;22;20056;-78
2023/05/08 00:51:53;;;;;;;7.75;5.30;;;20.00;76.30;;;;;;6307227;22;20003;-79
2023/05/08 00:54:19;;;;;;;8.95;5.30;;;20.00;76.40;;;;;;6307240;22;20007;-79
2023/05/08 00:56:45;;;;;;;7.68;4.93;;;20.00;76.60;;;;;;6307754;22;20000;-78
2023/05/08 00:59:15;;;;;;;10.02;5.15;;;19.90;76.50;;;;;;6307322;22;20018;-78
2023/05/08 01:01:42;;;;;;;8.18;5.25;;;19.90;76.60;;;;;;6307126;22;20010;-79
2023/05/08 01:04:08;;;;;;;7.55;4.90;;;19.80;76.60;;;;;;6307120;22;20025;-78
2023/05/08 01:06:35;;;;;;;7.70;5.40;;;19.80;76.90;;;;;;6307465;22;20026;-79
2023/05/08 01:09:02;;;;;;;7.88;5.35;;;19.80;76.70;;;;;;6307033;22;20003;-79
2023/05/08 01:11:37;;;;;;;7.18;5.07;;;19.80;76.70;;;;;;6307033;22;20061;-78
2023/05/08 01:14:47;;;;;;;8.90;5.70;;;19.80;76.80;;;;;;6307005;22;20326;-78
2023/05/08 01:17:35;;;;;;;9.07;5.35;;;19.80;78.00;;;;;;6235988;22;20019;-78
2023/05/08 01:20:13;;;;;;;8.73;6.20;;;19.70;77.20;;;;;;6306944;22;20090;-80
2023/05/08 01:23:17;;;;;;;7.65;5.47;;;19.70;78.70;;;;;;6306231;22;19995;-77
2023/05/08 01:25:48;;;;;;;10.73;5.47;;;19.60;79.00;;;;;;6307094;22;20007;-78
2023/05/08 01:28:23;;;;;;;7.93;5.43;;;19.50;79.10;;;;;;6307033;22;20049;-79
2023/05/08 01:31:11;;;;;;;8.30;5.88;;;19.60;79.30;;;;;;6306938;22;20078;-79
2023/05/08 01:33:46;;;;;;;8.10;5.57;;;19.50;78.40;;;;;;6306751;22;19996;-77
2023/05/08 01:36:53;;;;;;;8.63;5.70;;;19.50;78.60;;;;;;6306876;22;20013;-78
2023/05/08 01:39:45;;;;;;;9.73;6.10;;;19.50;79.40;;;;;;6305736;22;20023;-79
2023/05/08 01:42:31;;;;;;;9.05;5.95;;;19.40;79.50;;;;;;6285904;22;20003;-78
2023/05/08 01:45:01;;;;;;;7.90;5.85;;;19.40;78.70;;;;;;6306752;22;20076;-78
2023/05/08 01:47:31;;;;;;;8.45;6.28;;;19.40;79.00;;;;;;6307014;22;20400;-78
2023/05/08 01:50:04;;;;;;;8.25;5.80;;;19.40;78.70;;;;;;6306421;22;20014;-79
2023/05/08 01:52:42;;;;;;;9.77;5.50;;;19.40;78.80;;;;;;6306917;22;20399;-78
2023/05/08 01:55:11;;;;;;;9.00;5.85;;;19.40;78.50;;;;;;6306574;22;20328;-78
2023/05/08 01:57:42;;;;;;;9.48;5.72;;;19.50;78.50;;;;;;6306564;22;20074;-78
2023/05/08 02:00:08;;;;;;;9.70;5.88;;;19.50;78.20;;;;;;6306331;22;20072;-78
2023/05/08 02:02:35;;;;;;;9.25;5.85;;;19.50;78.30;;;;;;6306373;22;20459;-79
2023/05/08 02:05:06;;;;;;;9.18;6.38;;;19.50;78.10;;;;;;6306554;22;20003;-78
2023/05/08 02:07:36;;;;;;;8.63;5.70;;;19.50;78.00;;;;;;6306028;22;19996;-79
2023/05/08 02:10:04;;;;;;;12.27;6.65;;;19.50;77.80;;;;;;6306371;22;20114;-79
2023/05/08 02:12:31;;;;;;;11.70;6.68;;;19.40;77.40;;;;;;6306422;22;20006;-79
2023/05/08 02:14:59;;;;;;;10.13;6.22;;;19.40;77.10;;;;;;6306534;22;20018;-79
2023/05/08 02:17:27;;;;;;;8.88;6.07;;;19.40;77.40;;;;;;6306340;22;19995;-78
2023/05/08 02:19:55;;;;;;;9.25;6.10;;;19.30;77.30;;;;;;6306082;22;20329;-77
2023/05/08 02:22:23;;;;;;;9.23;6.70;;;19.30;77.60;;;;;;6306508;22;20022;-79
2023/05/08 02:24:54;;;;;;;10.30;6.35;;;19.30;77.70;;;;;;6306697;22;20010;-79
2023/05/08 02:27:21;;;;;;;8.98;6.18;;;19.30;77.70;;;;;;6306945;22;19998;-79
2023/05/08 02:29:50;;;;;;;10.85;6.47;;;19.40;77.70;;;;;;6306437;22;20364;-79
2023/05/08 02:32:17;;;;;;;9.10;6.38;;;19.40;77.80;;;;;;6306370;22;20034;-79
2023/05/08 02:34:44;;;;;;;8.90;5.55;;;19.40;77.80;;;;;;6306464;22;20064;-79
2023/05/08 02:37:10;;;;;;;8.38;5.63;;;19.40;77.70;;;;;;6306211;22;20032;-79
2023/05/08 02:39:38;;;;;;;8.50;5.90;;;19.40;77.70;;;;;;6306229;22;20090;-80
2023/05/08 02:42:04;;;;;;;8.82;5.68;;;19.40;77.80;;;;;;6278821;22;20332;-77
2023/05/08 02:44:30;;;;;;;9.30;5.90;;;19.40;78.10;;;;;;6306189;22;20019;-77
2023/05/08 02:47:02;;;;;;;8.93;6.32;;;19.30;77.80;;;;;;6306305;22;20077;-78
2023/05/08 02:49:51;;;;;;;8.05;6.25;;;19.30;78.10;;;;;;6306253;22;20003;-78
2023/05/08 02:52:23;;;;;;;10.57;6.72;;;19.30;79.20;;;;;;6306338;22;20428;-78
2023/05/08 02:55:22;;;;;;;11.82;6.55;;;19.20;78.50;;;;;;6306322;22;20000;-78
2023/05/08 02:58:06;;;;;;;11.43;6.53;;;19.20;79.30;;;;;;6306065;22;20003;-79
2023/05/08 03:00:41;;;;;;;8.27;6.30;;;19.20;79.30;;;;;;6305932;22;20436;-79
2023/05/08 03:03:16;;;;;;;9.50;5.63;;;19.20;78.50;;;;;;6305915;22;20015;-78
2023/05/08 03:05:48;;;;;;;12.32;6.00;;;19.20;79.30;;;;;;6305875;22;20313;-77
2023/05/08 03:08:17;;;;;;;8.68;6.30;;;19.20;78.50;;;;;;6306187;22;19999;-78
2023/05/08 03:10:47;;;;;;;8.80;6.38;;;19.20;78.60;;;;;;6306925;22;20427;-78
2023/05/08 03:13:15;;;;;;;8.13;6.38;;;19.20;78.50;;;;;;6307075;22;20011;-80
2023/05/08 03:15:53;;;;;;;9.98;6.88;;;19.20;78.20;;;;;;6306492;22;20003;-79
2023/05/08 03:18:22;;;;;;;10.57;6.28;;;19.20;79.20;;;;;;6306378;22;20007;-79
2023/05/08 03:20:52;;;;;;;13.30;6.70;;;19.20;78.40;;;;;;6306306;22;20282;-79
2023/05/08 03:23:20;;;;;;;10.35;6.35;;;19.20;78.30;;;;;;6306060;22;20136;-78
2023/05/08 03:25:46;;;;;;;14.85;7.40;;;19.20;78.20;;;;;;6306314;22;20035;-79
2023/05/08 03:28:13;;;;;;;10.77;6.82;;;19.20;78.20;;;;;;6278751;22;20003;-78
2023/05/08 03:30:40;;;;;;;10.00;7.00;;;19.20;78.20;;;;;;6306244;22;20073;-78
2023/05/08 03:33:07;;;;;;;11.65;7.22;;;19.20;78.10;;;;;;6306842;22;20023;-79
2023/05/08 03:35:37;;;;;;;11.30;7.68;;;19.10;77.70;;;;;;6306173;22;20102;-79
2023/05/08 03:38:07;;;;;;;11.95;6.78;;;19.00;77.70;;;;;;6305976;22;20011;-79
2023/05/08 03:40:43;;;;;;;9.15;6.40;;;19.00;77.80;;;;;;6306021;22;20007;-79
2023/05/08 03:43:10;;;;;;;11.93;7.07;;;18.90;77.80;;;;;;6306328;22;19999;-79
2023/05/08 03:45:37;;;;;;;10.85;7.28;;;18.90;77.90;;;;;;6305936;22;20065;-79
2023/05/08 03:48:05;;;;;;;11.27;7.93;;;18.90;78.10;;;;;;6306369;22;20011;-78
2023/05/08 03:50:31;;;;;;;10.15;6.60;;;18.80;78.30;;;;;;6305873;22;19999;-79
2023/05/08 03:53:00;;;;;;;12.35;6.75;;;18.70;78.20;;;;;;6306296;22;20358;-78
2023/05/08 03:55:26;;;;;;;11.52;6.57;;;18.60;78.40;;;;;;6278422;22;20007;-78
2023/05/08 03:58:10;;;;;;;11.48;6.65;;;18.50;78.50;;;;;;6305763;22;19996;-78
2023/05/08 04:00:52;;;;;;;10.57;6.93;;;18.50;79.30;;;;;;6305879;22;20106;-80
2023/05/08 04:03:36;;;;;;;11.45;6.93;;;18.50;78.70;;;;;;6305722;22;20053;-78
2023/05/08 04:06:20;;;;;;;9.35;6.45;;;18.50;79.10;;;;;;6305836;22;20002;-79
2023/05/08 04:09:01;;;;;;;11.30;6.35;;;18.50;79.20;;;;;;6306091;22;20418;-79
2023/05/08 04:12:04;;;;;;;10.60;6.60;;;18.50;78.70;;;;;;6305990;22;20034;-78
2023/05/08 04:14:36;;;;;;;10.50;6.83;;;18.50;79.30;;;;;;6223415;22;20007;-80
2023/05/08 04:17:06;;;;;;;10.77;5.97;;;18.40;78.50;;;;;;6308223;22;20241;-78
2023/05/08 04:19:36;;;;;;;15.95;6.50;;;18.50;78.80;;;;;;6307545;22;20007;-79
2023/05/08 04:22:06;;;;;;;11.20;7.15;;;18.50;78.60;;;;;;6280305;22;20078;-79
2023/05/08 04:24:36;;;;;;;11.57;5.90;;;18.50;78.50;;;;;;6307286;22;20018;-79
2023/05/08 04:27:03;;;;;;;9.85;6.88;;;18.60;78.90;;;;;;6307475;22;20071;-79
2023/05/08 04:29:29;;;;;;;9.70;5.80;;;18.60;78.90;;;;;;6307631;22;20094;-78
2023/05/08 04:31:56;;;;;;;10.20;6.20;;;18.60;78.80;;;;;;6307371;22;20078;-79
2023/05/08 04:34:22;;;;;;;12.88;6.25;;;18.50;78.80;;;;;;6307888;22;20352;-78
2023/05/08 04:36:48;;;;;;;11.10;6.05;;;18.50;79.20;;;;;;6307389;22;20009;-79
2023/05/08 04:39:14;;;;;;;9.27;6.07;;;18.40;79.40;;;;;;6307822;22;20030;-79
2023/05/08 04:41:40;;;;;;;11.35;6.18;;;18.40;79.70;;;;;;6307412;22;20082;-78
2023/05/08 04:44:05;;;;;;;10.93;6.50;;;18.30;79.60;;;;;;6307901;22;20010;-79
2023/05/08 04:46:31;;;;;;;13.15;7.30;;;18.30;79.70;;;;;;6307555;22;20007;-75
2023/05/08 04:48:57;;;;;;;10.07;6.90;;;18.40;80.00;;;;;;6307360;22;20571;-79
2023/05/08 04:51:22;;;;;;;13.73;7.18;;;18.40;79.80;;;;;;6307708;22;20492;-80
2023/05/08 04:53:48;;;;;;;13.38;7.38;;;18.40;80.00;;;;;;6307383;22;20494;-80
2023/05/08 04:56:14;;;;;;;13.32;6.97;;;18.40;79.90;;;;;;6307116;22;20035;-78
2023/05/08 04:58:39;;;;;;;14.45;6.93;;;18.40;79.80;;;;;;6307245;22;20007;-79
2023/05/08 05:01:05;;;;;;;9.65;7.05;;;18.40;79.90;;;;;;6307494;22;20026;-78
2023/05/08 07:41:00;;;;;;;16.67;10.10;;;20.50;75.90;;;;;;6328254;22;20049;-76
2023/05/08 07:43:26;;;;;;;18.27;10.52;;;20.50;75.40;;;;;;6336963;22;20317;-77
2023/05/08 07:45:52;;;;;;;14.73;9.88;;;20.50;75.80;;;;;;6335240;22;20002;-77
2023/05/08 07:48:18;;;;;;;15.80;10.05;;;20.50;75.60;;;;;;6336141;22;20113;-76
2023/05/08 07:50:44;;;;;;;16.83;9.70;;;20.50;75.80;;;;;;6338863;22;20022;-76
2023/05/08 07:53:10;;;;;;;14.23;10.32;;;20.50;76.00;;;;;;6338539;22;20397;-76
2023/05/08 07:55:35;;;;;;;18.75;10.43;;;20.60;76.10;;;;;;6338949;22;19995;-77
2023/05/08 07:58:01;;;;;;;15.80;10.10;;;20.60;76.00;;;;;;6336279;22;20002;-77
2023/05/08 08:00:28;;;;;;;18.10;9.70;;;20.60;75.80;;;;;;6338777;22;20003;-76
2023/05/08 08:02:54;;;;;;;17.40;10.48;;;20.60;75.40;;;;;;6337037;22;20002;-76
2023/05/08 08:05:20;;;;;;;16.80;9.38;;;20.70;75.10;;;;;;6338744;22;20007;-80
2023/05/08 08:07:46;;;;;;;14.63;9.20;;;20.60;75.00;;;;;;6338647;22;19995;-75
2023/05/08 08:10:11;;;;;;;16.05;9.30;;;20.70;74.80;;;;;;6338717;22;20009;-75
2023/05/08 08:12:37;;;;;;;18.33;9.02;;;20.70;74.70;;;;;;6338048;22;20359;-74
2023/05/08 08:15:04;;;;;;;17.50;9.20;;;20.70;74.70;;;;;;6338652;22;20010;-74
2023/05/08 08:17:30;;;;;;;13.60;8.63;;;20.70;74.60;;;;;;6338339;22;19999;-76
2023/05/08 08:19:55;;;;;;;11.77;8.18;;;20.80;74.50;;;;;;6338515;22;20313;-78
2023/05/08 08:22:22;;;;;;;12.90;8.15;;;20.80;74.50;;;;;;6338504;22;20049;-77
2023/05/08 08:24:47;;;;;;;13.50;7.93;;;20.90;74.20;;;;;;6338183;22;20456;-78
2023/05/08 08:27:13;;;;;;;16.80;7.78;;;20.90;74.10;;;;;;6338358;22;20005;-77
2023/05/08 08:29:39;;;;;;;13.70;8.25;;;20.90;74.20;;;;;;6338280;22;20006;-76
2023/05/08 08:32:05;;;;;;;16.85;8.30;;;21.00;74.30;;;;;;6338199;22;20003;-76
2023/05/08 08:34:33;;;;;;;16.58;7.82;;;21.00;74.20;;;;;;6338280;22;20044;-78
2023/05/08 08:36:59;;;;;;;14.07;7.45;;;21.00;74.20;;;;;;6311195;22;20052;-78
2023/05/08 08:39:24;;;;;;;14.02;8.13;;;20.90;74.50;;;;;;6338320;22;20045;-78
2023/05/08 08:41:50;;;;;;;12.30;7.55;;;21.00;74.80;;;;;;6337874;22;20022;-74
2023/05/08 08:44:16;;;;;;;13.70;6.75;;;21.00;74.60;;;;;;6338442;22;20328;-78
2023/05/08 08:46:50;;;;;;;15.27;7.25;;;21.00;74.90;;;;;;6338493;22;19995;-75
2023/05/08 08:49:34;;;;;;;12.25;7.78;;;21.00;75.00;;;;;;6338662;22;19995;-81
2023/05/08 08:52:05;;;;;;;12.30;6.68;;;21.00;76.30;;;;;;6338050;22;20080;-80
2023/05/08 08:54:34;;;;;;;16.48;7.53;;;21.10;75.50;;;;;;6340116;22;19999;-81
2023/05/08 08:57:03;;;;;;;12.05;7.38;;;21.10;75.50;;;;;;6339512;22;20425;-80
2023/05/08 08:59:30;;;;;;;14.32;7.85;;;21.20;76.00;;;;;;6313270;22;20038;-80
2023/05/08 09:02:00;;;;;;;16.15;6.90;;;21.20;76.40;;;;;;6312384;22;20445;-81
2023/05/08 09:04:26;;;;;;;11.27;7.47;;;21.20;76.60;;;;;;6339706;22;19999;-82
2023/05/08 09:06:53;;;;;;;25.83;6.70;;;21.20;77.20;;;;;;6340558;22;19999;-81
2023/05/08 09:09:19;;;;;;;11.77;6.82;;;21.20;77.40;;;;;;6339578;22;20064;-81
2023/05/08 09:11:45;;;;;;;11.30;6.50;;;21.30;77.70;;;;;;6340210;22;20003;-80
2023/05/08 09:14:11;;;;;;;15.80;7.10;;;21.30;77.70;;;;;;6349017;22;20018;-81
2023/05/08 09:16:37;;;;;;;11.57;6.65;;;21.30;77.80;;;;;;6343515;22;19998;-79
2023/05/08 09:19:03;;;;;;;9.68;5.95;;;21.30;77.70;;;;;;6339212;22;20060;-79
2023/05/08 09:21:28;;;;;;;11.23;6.60;;;21.30;77.80;;;;;;6338975;22;19999;-80
2023/05/08 09:23:58;;;;;;;9.70;6.25;;;21.30;78.10;;;;;;6338903;22;20429;-80
2023/05/08 09:26:33;;;;;;;8.25;5.90;;;21.30;77.60;;;;;;6338942;22;20006;-79
2023/05/08 09:29:11;;;;;;;8.75;5.45;;;21.40;77.20;;;;;;6338404;22;20051;-79
2023/05/08 09:31:41;;;;;;;7.03;4.75;;;21.40;77.90;;;;;;6339340;22;20010;-81
2023/05/08 09:34:21;;;;;;;9.43;5.18;;;21.50;76.70;;;;;;6338177;22;20003;-80
2023/05/08 09:36:47;;;;;;;7.00;4.70;;;21.50;76.30;;;;;;6338713;22;19999;-80
2023/05/08 09:39:24;;;;;;;9.15;5.30;;;21.50;76.20;;;;;;6311306;22;20085;-80
2023/05/08 09:42:03;;;;;;;8.75;4.07;;;21.50;77.20;;;;;;6340618;22;20077;-80
2023/05/08 09:44:52;;;;;;;12.40;4.90;;;21.40;76.30;;;;;;6339512;22;20333;-81
2023/05/08 09:47:22;;;;;;;18.10;5.43;;;21.30;77.50;;;;;;6339504;22;20062;-80
2023/05/08 09:50:04;;;;;;;9.68;4.10;;;21.20;76.90;;;;;;6339485;22;20293;-80
2023/05/08 09:52:32;;;;;;;17.38;4.60;;;21.20;78.00;;;;;;6338428;22;19998;-80
2023/05/08 09:54:59;;;;;;;17.85;4.20;;;21.10;76.90;;;;;;6338580;22;20030;-79
2023/05/08 09:57:26;;;;;;;13.98;5.10;;;21.10;76.90;;;;;;6338078;22;20455;-81
2023/05/08 10:00:02;;;;;;;18.65;4.60;;;21.10;77.20;;;;;;6338565;22;20010;-79
2023/05/08 10:02:28;;;;;;;11.57;3.78;;;21.10;77.90;;;;;;6338755;22;19999;-80
2023/05/08 10:04:54;;;;;;;10.13;3.80;;;21.00;76.80;;;;;;6338292;22;20044;-79
2023/05/08 10:07:33;;;;;;;10.07;4.35;;;21.00;77.00;;;;;;6338048;22;19999;-79
2023/05/08 10:10:00;;;;;;;7.85;3.75;;;21.00;76.60;;;;;;6337532;22;20069;-80
2023/05/08 10:12:27;;;;;;;9.75;4.10;;;21.00;76.80;;;;;;6337748;22;19999;-81
2023/05/08 10:14:53;;;;;;;10.43;4.35;;;20.90;77.10;;;;;;6337736;22;20075;-77
2023/05/08 10:17:25;;;;;;;14.02;4.93;;;20.90;77.10;;;;;;6337721;22;20333;-75
2023/05/08 10:19:58;;;;;;;8.32;4.53;;;20.80;77.00;;;;;;6309605;22;20015;-75
2023/05/08 10:22:25;;;;;;;12.57;4.28;;;20.80;77.20;;;;;;6337610;22;19995;-78
2023/05/08 10:24:55;;;;;;;10.52;4.28;;;20.80;77.20;;;;;;6337552;22;19999;-77
2023/05/08 10:27:49;;;;;;;8.45;4.25;;;20.80;77.10;;;;;;6337067;22;19996;-76
2023/05/08 10:30:16;;;;;;;;;;;20.80;77.30;;;;;;6337799;22;20017;-77
2023/05/08 10:32:46;;;;;;;8.80;3.60;;;20.80;77.30;;;;;;6337340;22;20213;-79
2023/05/08 10:35:12;;;;;;;9.60;4.20;;;20.70;77.00;;;;;;6337450;22;19995;-79
2023/05/08 10:37:41;;;;;;;12.73;5.00;;;20.70;76.90;;;;;;6337929;22;20009;-76
2023/05/08 10:40:08;;;;;;;10.25;4.70;;;20.70;76.50;;;;;;6337337;22;20341;-77
2023/05/08 10:42:35;;;;;;;13.52;5.05;;;20.60;76.80;;;;;;6337526;22;20006;-74
2023/05/08 10:45:03;;;;;;;15.95;4.95;;;20.60;76.90;;;;;;6336680;22;20005;-73
2023/05/08 10:47:49;;;;;;;12.52;4.85;;;20.60;76.70;;;;;;6338042;22;20002;-72
2023/05/08 10:51:05;;;;;;;13.85;4.53;;;20.60;77.50;;;;;;6310096;22;20002;-71
2023/05/08 10:53:49;;;;;;;10.07;4.13;;;20.50;77.60;;;;;;6329882;22;20014;-75
2023/05/08 10:56:15;;;;;;;14.40;5.20;;;20.40;76.30;;;;;;6337269;22;20001;-76
2023/05/08 10:58:40;;;;;;;20.85;4.75;;;20.50;76.00;;;;;;6337147;22;20007;-73
2023/05/08 11:01:06;;;;;;;10.77;4.10;;;20.60;75.70;;;;;;6337048;22;20007;-74
2023/05/08 11:03:41;;;;;;;9.50;4.07;;;20.70;75.30;;;;;;6337433;22;19995;-76
2023/05/08 11:06:07;;;;;;;10.13;4.07;;;20.80;74.60;;;;;;6337489;22;20002;-81
2023/05/08 11:08:46;;;;;;;8.63;3.80;;;20.80;74.60;;;;;;6337473;22;20085;-75
2023/05/08 11:11:37;;;;;;;7.70;4.38;;;20.90;75.40;;;;;;6338130;22;19995;-80
2023/05/08 11:14:10;;;;;;;9.05;3.90;;;20.90;74.30;;;;;;6337757;22;20002;-73
2023/05/08 11:16:58;;;;;;;10.38;4.40;;;20.80;74.40;;;;;;6337660;22;20125;-78
2023/05/08 11:19:25;;;;;;;10.77;4.35;;;20.80;75.60;;;;;;6337471;22;20011;-78
2023/05/08 11:22:20;;;;;;;10.80;3.78;;;20.70;75.00;;;;;;6338693;22;20088;-80
2023/05/08 11:24:58;;;;;;;10.93;4.15;;;20.60;75.90;;;;;;6339721;22;20013;-80
2023/05/08 11:27:55;;;;;;;10.63;5.80;;;20.60;75.30;;;;;;6339687;22;20026;-80
2023/05/08 11:30:34;;;;;;;9.77;4.30;;;20.60;76.10;;;;;;6318643;22;20011;-80
2023/05/08 11:33:03;;;;;;;13.48;4.10;;;20.50;75.90;;;;;;6340161;22;19995;-76
2023/05/08 11:35:46;;;;;;;9.30;4.20;;;20.50;75.10;;;;;;6338340;22;20365;-80
2023/05/08 11:38:20;;;;;;;9.85;4.28;;;20.50;76.10;;;;;;6337500;22;20009;-82
2023/05/08 11:40:53;;;;;;;;;;;20.60;76.20;;;;;;6339604;22;20022;-82
2023/05/08 11:43:58;;;;;;;10.00;4.15;;;20.50;76.10;;;;;;6338296;22;19905;-81
2023/05/08 11:46:45;;;;;;;10.02;4.90;;;20.50;76.70;;;;;;6339656;22;19999;-81
2023/05/08 11:49:13;;;;;;;14.07;6.22;;;20.40;77.10;;;;;;6312079;22;20007;-80
2023/05/08 11:51:43;;;;;;;9.20;5.00;;;20.40;76.80;;;;;;6340165;22;20107;-81
2023/05/08 11:54:11;;;;;;;10.85;5.57;;;20.30;77.30;;;;;;6340565;22;19999;-82
2023/05/08 11:56:37;;;;;;;10.02;5.53;;;20.30;77.60;;;;;;6340014;22;20010;-82
2023/05/08 11:59:10;;;;;;;16.17;8.20;;;20.40;78.00;;;;;;6339267;22;20456;-82
2023/05/08 12:01:36;;;;;;;14.32;7.25;;;20.30;78.40;;;;;;6339279;22;20335;-82
2023/05/08 12:04:04;;;;;;;11.18;6.00;;;20.30;78.70;;;;;;6339091;22;20072;-80
2023/05/08 12:06:31;;;;;;;12.57;5.97;;;20.30;78.90;;;;;;6339259;22;20002;-83
2023/05/08 12:08:58;;;;;;;10.10;5.93;;;20.30;79.10;;;;;;6339537;22;20082;-81
2023/05/08 12:11:24;;;;;;;11.48;6.07;;;20.30;79.10;;;;;;6339382;22;20006;-82
2023/05/08 12:13:50;;;;;;;11.98;5.72;;;20.30;79.40;;;;;;6339795;22;20107;-82
2023/05/08 12:16:16;;;;;;;10.55;5.82;;;20.30;79.40;;;;;;6342409;22;20065;-81
2023/05/08 12:18:42;;;;;;;12.60;6.55;;;20.30;79.90;;;;;;6341521;22;20010;-82
2023/05/08 12:21:10;;;;;;;13.32;6.05;;;20.20;79.80;;;;;;6338986;22;19999;-81
2023/05/08 12:23:36;;;;;;;17.00;6.65;;;20.10;79.90;;;;;;6338756;22;20022;-77
2023/05/08 12:26:02;;;;;;;12.10;6.22;;;20.10;80.00;;;;;;6339268;22;20046;-77
2023/05/08 12:28:31;;;;;;;16.40;6.97;;;20.20;80.30;;;;;;6310737;22;20336;-77
2023/05/08 12:30:57;;;;;;;14.82;6.47;;;20.10;80.50;;;;;;6337449;22;20065;-75
2023/05/08 12:33:23;;;;;;;15.18;7.32;;;20.10;80.90;;;;;;6337379;22;20247;-77
2023/05/08 12:35:49;;;;;;;12.57;7.43;;;20.10;81.00;;;;;;6338503;22;20393;-76
2023/05/08 12:38:15;;;;;;;12.95;5.85;;;20.10;81.10;;;;;;6338084;22;19994;-80
2023/05/08 12:40:47;;;;;;;12.68;5.93;;;20.10;81.50;;;;;;6339028;22;20348;-82
2023/05/08 12:43:13;;;;;;;14.45;5.60;;;20.10;82.00;;;;;;6339454;22;20305;-82
2023/05/08 12:45:41;;;;;;;13.43;6.15;;;20.10;81.50;;;;;;6348735;22;20025;-87
2023/05/08 12:48:11;;;;;;;10.95;6.50;;;20.20;81.60;;;;;;6345681;22;19999;-80
2023/05/08 12:50:42;;;;;;;13.57;6.38;;;20.20;81.60;;;;;;6338564;22;20003;-80
2023/05/08 12:53:09;;;;;;;11.60;6.10;;;20.30;81.30;;;;;;6338408;22;19999;-79
2023/05/08 12:55:37;;;;;;;11.80;6.65;;;20.30;81.30;;;;;;6338488;22;19995;-80
2023/05/08 12:58:13;;;;;;;14.70;5.95;;;20.40;81.50;;;;;;6338335;22;20007;-78
2023/05/08 13:00:46;;;;;;;12.38;5.97;;;20.40;81.00;;;;;;6338853;22;20007;-80
2023/05/08 13:03:20;;;;;;;13.25;6.70;;;20.50;81.20;;;;;;6338882;22;19995;-80
2023/05/08 13:05:46;;;;;;;12.48;7.22;;;20.50;81.40;;;;;;6339040;22;20051;-79
2023/05/08 13:08:12;;;;;;;12.35;7.03;;;20.50;81.50;;;;;;6338878;22;20074;-79
2023/05/08 13:10:54;;;;;;;15.48;9.23;;;20.50;82.00;;;;;;6338743;22;19999;-80
2023/05/08 13:13:24;;;;;;;11.95;6.82;;;20.50;82.30;;;;;;6338373;22;20027;-79
2023/05/08 13:15:52;;;;;;;11.75;6.78;;;20.40;81.80;;;;;;6337820;22;20006;-79
2023/05/08 13:18:19;;;;;;;13.95;7.20;;;20.30;82.20;;;;;;6337795;22;20046;-77
2023/05/08 13:20:45;;;;;;;13.40;7.22;;;20.20;82.20;;;;;;6338481;22;20011;-79
2023/05/08 13:23:11;;;;;;;13.18;7.07;;;20.30;82.80;;;;;;6338439;22;20025;-78
2023/05/08 13:25:38;;;;;;;12.93;7.97;;;20.30;82.90;;;;;;6338193;22;20074;-77
2023/05/08 13:28:05;;;;;;;16.10;7.35;;;20.40;83.10;;;;;;6338037;22;20044;-80
2023/05/08 13:30:31;;;;;;;12.55;8.02;;;20.40;83.30;;;;;;6310925;22;20092;-79
2023/05/08 13:32:56;;;;;;;15.77;7.80;;;20.40;83.40;;;;;;6338322;22;20007;-78
2023/05/08 13:35:23;;;;;;;14.90;7.78;;;20.30;83.80;;;;;;6338463;22;20374;-79
2023/05/08 13:37:49;;;;;;;12.82;7.45;;;20.30;83.40;;;;;;6338313;22;20014;-79
2023/05/08 13:40:16;;;;;;;13.95;7.60;;;20.20;83.30;;;;;;6337602;22;20015;-78
2023/05/08 13:42:42;;;;;;;17.60;8.10;;;20.10;83.30;;;;;;6338538;22;20421;-80
2023/05/08 13:45:15;;;;;;;19.05;7.75;;;20.20;83.70;;;;;;6339171;22;20006;-78
2023/05/08 13:47:44;;;;;;;14.48;7.00;;;20.20;83.60;;;;;;6339036;22;20439;-75
2023/05/08 13:50:11;;;;;;;16.13;7.78;;;20.30;83.40;;;;;;6310889;22;20463;-81
2023/05/08 13:52:38;;;;;;;13.48;7.07;;;20.30;83.60;;;;;;6311433;22;19999;-83
2023/05/08 13:55:08;;;;;;;14.48;8.05;;;20.30;83.60;;;;;;6340272;22;20006;-84
2023/05/08 13:57:34;;;;;;;18.42;7.78;;;20.30;83.50;;;;;;6339772;22;19999;-79
2023/05/08 14:00:00;;;;;;;15.85;8.13;;;20.20;83.30;;;;;;6311437;22;20015;-81
2023/05/08 14:02:25;;;;;;;10.73;7.15;;;20.20;83.50;;;;;;6339200;22;19998;-81
2023/05/08 14:04:52;;;;;;;15.00;7.78;;;20.20;83.40;;;;;;6339784;22;20082;-79
2023/05/08 14:07:17;;;;;;;15.20;7.60;;;20.20;83.50;;;;;;6337968;22;20002;-80
2023/05/08 14:09:46;;;;;;;13.63;6.85;;;20.20;83.70;;;;;;6337677;22;20013;-81
2023/05/08 14:12:12;;;;;;;13.40;7.90;;;20.20;83.90;;;;;;6338458;22;20023;-81
2023/05/08 14:14:38;;;;;;;13.82;7.43;;;20.20;83.60;;;;;;6338869;22;20006;-79
2023/05/08 14:17:04;;;;;;;11.98;7.63;;;20.30;84.30;;;;;;6338113;22;19999;-78
2023/05/08 14:19:30;;;;;;;15.43;7.47;;;20.30;83.60;;;;;;6338808;22;20060;-77
2023/05/08 14:21:56;;;;;;;16.48;8.38;;;20.40;83.60;;;;;;6337461;22;20074;-77
2023/05/08 14:24:22;;;;;;;23.83;11.10;;;20.40;83.50;;;;;;6338851;22;20034;-76
2023/05/08 14:26:47;;;;;;;19.75;14.25;;;20.50;83.90;;;;;;6338954;22;20082;-77
2023/05/08 14:29:14;;;;;;;20.40;13.77;;;20.50;84.10;;;;;;6339371;22;20007;-76
2023/05/08 14:31:40;;;;;;;22.55;13.10;;;20.50;84.50;;;;;;6339948;22;19995;-77
2023/05/08 14:34:05;;;;;;;20.92;12.90;;;20.60;85.00;;;;;;6339239;22;20036;-75
2023/05/08 14:36:31;;;;;;;25.63;15.82;;;20.60;85.10;;;;;;6339553;22;20436;-76
2023/05/08 14:38:57;;;;;;;26.48;15.60;;;20.60;85.30;;;;;;6340664;22;20378;-78
2023/05/08 14:41:27;;;;;;;25.85;15.63;;;20.60;85.50;;;;;;6341069;22;20065;-78
2023/05/08 14:43:53;;;;;;;21.33;13.13;;;20.60;85.60;;;;;;6338914;22;20452;-78
2023/05/08 14:46:19;;;;;;;24.05;15.80;;;20.60;85.80;;;;;;6338804;22;20002;-81
2023/05/08 14:48:44;;;;;;;25.38;13.80;;;20.70;86.20;;;;;;6310801;22;20094;-79
2023/05/08 14:51:11;;;;;;;18.52;12.00;;;20.60;86.20;;;;;;6337964;22;20005;-76
2023/05/08 14:53:37;;;;;;;15.02;10.70;;;20.70;86.20;;;;;;6337729;22;19999;-78
2023/05/08 14:56:03;;;;;;;18.75;12.13;;;20.60;86.00;;;;;;6337487;22;20002;-80
2023/05/08 14:58:28;;;;;;;17.58;11.70;;;20.60;86.30;;;;;;6309943;22;20456;-78
2023/05/08 15:00:54;;;;;;;23.70;14.85;;;20.50;86.50;;;;;;6338481;22;20003;-80
2023/05/08 15:03:20;;;;;;;20.38;13.60;;;20.50;86.80;;;;;;6338827;22;20060;-80
2023/05/08 15:05:46;;;;;;;18.00;11.93;;;20.40;87.10;;;;;;6337250;22;20009;-81
2023/05/08 15:08:12;;;;;;;16.55;11.18;;;20.30;87.20;;;;;;6311140;22;20006;-80
2023/05/08 15:10:38;;;;;;;17.67;11.63;;;20.30;87.70;;;;;;6338602;22;20329;-81
2023/05/08 15:13:04;;;;;;;19.38;10.77;;;20.30;87.70;;;;;;6338691;22;20006;-81
2023/05/08 15:15:29;;;;;;;16.20;10.52;;;20.30;87.90;;;;;;6338203;22;20049;-80
2023/05/08 15:17:55;;;;;;;15.63;11.35;;;20.30;88.00;;;;;;6310962;22;20009;-80
2023/05/08 15:20:21;;;;;;;17.23;10.93;;;20.30;87.90;;;;;;6338176;22;20064;-80
2023/05/08 15:22:46;;;;;;;16.85;10.45;;;20.20;88.00;;;;;;6338617;22;20002;-79
2023/05/08 15:25:12;;;;;;;14.40;10.30;;;20.20;88.20;;;;;;6338617;22;20388;-80
2023/05/08 15:27:38;;;;;;;16.25;11.02;;;20.10;88.10;;;;;;6310842;22;20056;-81
2023/05/08 15:30:04;;;;;;;17.65;10.13;;;20.10;88.20;;;;;;6338330;22;20030;-81